Accueil
METAR-TAF:

METAR-TAF

Aéroports :

Londres-Luton, Angleterre

Aéroport de Londres-Luton

latitude: 51-52N, longitude: 000-22W, altitude: 160 m

Observation

Le bulletin a été fait il y a 14 minutes, à 00:20 UTC
Vent 9 kt de est
Température 1°C
Humidité 75%
Pression 1019 hPa
Visibilité 10 km ou plus
Ciel couvert à une hauteur de 2600 ft

METAR: EGGW 240020Z AUTO 10009KT 9999 OVC026 01/M03 Q1019

Heure: 00:34 (00:34 UTC)

Prévision

Le bulletin a été fait il y a 1 heure et 29 minutes, à 23:05 UTC
Prévision valable du 24 à 00 UTC au 24 à 24 UTC
Vent 10 kt de est/nord-est
Visibilité 10 km ou plus
Nuages épars à une hauteur de 2500 ft
Temporairement
du 24 à 00 UTC au 24 à 09 UTC
Visibilité: 8000 m
Probabilité 30% :
Temporairement
du 24 à 15 UTC au 24 à 24 UTC
Vent 15 kt de est avec des rafales jusqu'à 25 kt

TAF: EGGW 232305Z 2400/2424 07010KT 9999 SCT025 TEMPO 2400/2409 8000 PROB30 TEMPO 2415/2424 08015G25KT

Observations et prévisions météorologiques de plus de 4000 aéroports (messages METAR et TAF).

Les stations disponibles sont représentées par des disques jaunes et rouges sur la carte.

Passer la souris dessus pour voir le nom de la station.

Cliquer dessus pour voir les observations et prévisions météorologiques.

Pour changer de carte: cliquez sur les boutons verts avec une croix noire pour zoomer, sur le bouton vert avec un tiret pour effectuer un zoom arrière, ou sur les flèches vertes pour les cartes adjacentes.


METAR-TAF: